createdAt,value
2023-03-29T00:02:17.975Z,101302.38
2023-03-29T00:07:19.301Z,101292.25
2023-03-29T00:12:20.677Z,101288.28
2023-03-29T00:17:22.156Z,101283.94
2023-03-29T00:22:23.602Z,101285.13
2023-03-29T00:27:24.931Z,101273.81
2023-03-29T00:32:26.510Z,101260.97
2023-03-29T00:37:29.826Z,101246.41
2023-03-29T00:42:31.355Z,101243.56
2023-03-29T00:47:41.649Z,101240.22
2023-03-29T00:52:46.340Z,101232.28
2023-03-29T00:57:49.270Z,101233.38
2023-03-29T01:02:54.269Z,101213.44
2023-03-29T01:07:58.969Z,101213.16
2023-03-29T01:13:06.573Z,101211.44
2023-03-29T01:18:09.047Z,101198.19
2023-03-29T01:23:29.091Z,101197.25
2023-03-29T01:28:39.177Z,101191.50
2023-03-29T01:33:42.642Z,101184.59
2023-03-29T01:38:49.635Z,101191.78
2023-03-29T01:43:55.473Z,101172.28
2023-03-29T01:49:03.533Z,101156.84
2023-03-29T01:54:11.461Z,101143.13
2023-03-29T01:59:20.315Z,101152.28
2023-03-29T02:04:25.488Z,101152.28
2023-03-29T02:09:28.742Z,101145.66
2023-03-29T02:14:30.493Z,101141.44
2023-03-29T02:19:32.535Z,101134.19
2023-03-29T02:24:36.528Z,101143.75
2023-03-29T02:29:37.874Z,101132.56
2023-03-29T02:34:42.741Z,101131.75
2023-03-29T02:39:44.563Z,101129.00
2023-03-29T02:44:47.255Z,101122.72
2023-03-29T02:49:48.613Z,101111.22
2023-03-29T02:54:51.343Z,101116.72
2023-03-29T02:59:57.254Z,101109.59
2023-03-29T03:04:59.185Z,101105.88
2023-03-29T03:10:00.563Z,101107.41
2023-03-29T03:15:02.570Z,101107.38
2023-03-29T03:20:05.361Z,101097.00
2023-03-29T03:25:06.928Z,101102.19
2023-03-29T03:30:08.952Z,101099.94
2023-03-29T03:35:11.701Z,101094.16
2023-03-29T03:40:13.805Z,101091.06
2023-03-29T03:45:15.444Z,101087.66
2023-03-29T03:50:17.696Z,101089.97
2023-03-29T03:55:19.032Z,101081.56
2023-03-29T04:00:20.987Z,101093.56
2023-03-29T04:05:22.361Z,101085.09
2023-03-29T04:10:23.825Z,101075.41
2023-03-29T04:15:26.664Z,101076.00
2023-03-29T04:20:28.196Z,101072.81
2023-03-29T04:25:29.690Z,101076.03
2023-03-29T04:30:31.077Z,101068.94
2023-03-29T04:35:33.285Z,101070.25
2023-03-29T04:40:34.717Z,101070.41
2023-03-29T04:45:36.842Z,101069.63
2023-03-29T04:50:38.171Z,101076.78
2023-03-29T04:55:39.576Z,101072.22
2023-03-29T05:00:40.944Z,101057.34
2023-03-29T05:05:42.337Z,101060.56
2023-03-29T05:10:43.980Z,101061.06
2023-03-29T05:15:45.299Z,101057.66
2023-03-29T05:20:47.285Z,101053.00
2023-03-29T05:25:51.326Z,101056.59
2023-03-29T05:31:04.265Z,101059.03
2023-03-29T05:36:11.030Z,101057.75
2023-03-29T05:41:13.025Z,101063.94
2023-03-29T05:46:14.420Z,101046.41
2023-03-29T05:51:15.994Z,101046.44
2023-03-29T05:56:17.438Z,101044.84
2023-03-29T06:01:18.823Z,101055.94
2023-03-29T06:06:21.303Z,101045.56
2023-03-29T06:11:24.258Z,101044.25
2023-03-29T06:16:26.126Z,101030.31
2023-03-29T06:21:28.471Z,101031.28
2023-03-29T06:26:30.155Z,101034.25
2023-03-29T06:31:31.581Z,101037.66
2023-03-29T06:36:34.918Z,101045.94
2023-03-29T06:41:36.261Z,101047.59
2023-03-29T06:46:37.723Z,101026.50
2023-03-29T06:51:40.162Z,101042.41
2023-03-29T06:56:41.539Z,101057.69
2023-03-29T07:01:43.007Z,101062.72
2023-03-29T07:06:48.415Z,101066.97
2023-03-29T07:11:50.345Z,101064.19
2023-03-29T07:16:51.888Z,101059.16
2023-03-29T07:21:54.232Z,101070.03
2023-03-29T07:27:04.215Z,101059.34
2023-03-29T07:32:06.503Z,101067.94
2023-03-29T07:37:09.314Z,101058.16
2023-03-29T07:42:10.632Z,101054.94
2023-03-29T07:47:12.652Z,101064.47
2023-03-29T07:52:13.985Z,101058.16
2023-03-29T07:57:15.876Z,101051.31
2023-03-29T08:02:17.247Z,101058.63
2023-03-29T08:07:21.289Z,101066.34
2023-03-29T08:12:24.910Z,101059.72
2023-03-29T08:17:26.455Z,101052.09
2023-03-29T08:22:28.447Z,101040.63
2023-03-29T08:27:30.149Z,101043.75
2023-03-29T08:32:31.689Z,101057.34
2023-03-29T08:37:33.062Z,101037.59
2023-03-29T08:42:51.302Z,101055.22
2023-03-29T08:48:11.645Z,101031.47
2023-03-29T08:53:22.983Z,101041.22
2023-03-29T08:58:26.125Z,101056.13
2023-03-29T09:03:35.533Z,101043.53
2023-03-29T09:08:42.332Z,101048.56
2023-03-29T09:13:52.844Z,101052.38
2023-03-29T09:19:06.983Z,101053.53
2023-03-29T09:24:11.567Z,101046.56
2023-03-29T09:29:31.685Z,101044.28
2023-03-29T09:34:41.078Z,101037.63
2023-03-29T09:39:42.390Z,101029.16
2023-03-29T09:44:45.676Z,101016.88
2023-03-29T09:49:49.289Z,101019.41
2023-03-29T09:54:51.872Z,101016.59
2023-03-29T09:59:53.278Z,101013.28
2023-03-29T10:05:03.875Z,100997.84
2023-03-29T10:10:07.583Z,100990.22
2023-03-29T10:15:16.758Z,100994.19
2023-03-29T10:20:24.848Z,100989.53
2023-03-29T10:25:28.664Z,100999.84
2023-03-29T10:30:33.738Z,100996.09
2023-03-29T10:35:41.444Z,100985.59
2023-03-29T10:40:47.058Z,100986.06
2023-03-29T10:45:49.863Z,100971.16
2023-03-29T10:50:53.155Z,100959.03
2023-03-29T10:55:54.643Z,100961.47
2023-03-29T11:00:56.974Z,100970.28
2023-03-29T11:06:07.704Z,100970.75
2023-03-29T11:11:19.811Z,100953.28
2023-03-29T11:16:29.944Z,100947.34
2023-03-29T11:21:37.811Z,100950.53
2023-03-29T11:26:54.581Z,100953.06
2023-03-29T11:32:14.747Z,100948.69
2023-03-29T11:37:20.373Z,100927.59
2023-03-29T11:42:24.742Z,100918.34
2023-03-29T11:47:32.587Z,100914.81
2023-03-29T11:52:36.141Z,100911.72
2023-03-29T11:57:39.384Z,100910.00
2023-03-29T12:03:00.970Z,100909.25
2023-03-29T12:08:09.117Z,100903.06
2023-03-29T12:13:15.048Z,100915.53
2023-03-29T12:18:28.466Z,100907.16
2023-03-29T12:23:31.073Z,100898.19
2023-03-29T12:28:44.675Z,100900.81
2023-03-29T12:34:04.982Z,100881.66
2023-03-29T12:39:11.253Z,100883.69
2023-03-29T12:44:14.420Z,100867.00
2023-03-29T12:49:35.864Z,100869.66
2023-03-29T12:54:37.195Z,100865.34
2023-03-29T12:59:46.749Z,100864.28
2023-03-29T13:04:48.072Z,100856.44
2023-03-29T13:09:51.224Z,100841.41
2023-03-29T13:15:03.999Z,100863.94
2023-03-29T13:20:31.953Z,100856.81
2023-03-29T13:25:41.316Z,100848.22
2023-03-29T13:30:50.121Z,100859.06
2023-03-29T13:35:59.152Z,100854.78
2023-03-29T13:41:06.925Z,100844.31
2023-03-29T13:46:18.714Z,100843.06
2023-03-29T13:51:23.934Z,100843.84
2023-03-29T13:56:27.207Z,100831.94
2023-03-29T14:01:31.545Z,100821.53
2023-03-29T14:06:34.750Z,100814.31
2023-03-29T14:11:36.513Z,100802.34
2023-03-29T14:16:39.656Z,100792.50
2023-03-29T14:21:41.552Z,100782.97
2023-03-29T14:26:46.752Z,100772.41
2023-03-29T14:31:48.096Z,100767.41
2023-03-29T14:36:50.060Z,100766.63
2023-03-29T14:41:52.547Z,100766.88
2023-03-29T14:46:54.534Z,100767.56
2023-03-29T14:51:56.770Z,100764.28
2023-03-29T14:56:58.769Z,100766.50
2023-03-29T15:02:00.107Z,100760.16
2023-03-29T15:07:02.689Z,100752.94
2023-03-29T15:12:04.123Z,100744.34
2023-03-29T15:17:16.201Z,100737.81
2023-03-29T15:22:17.486Z,100734.63
2023-03-29T15:27:19.629Z,100734.94
2023-03-29T15:32:22.617Z,100736.56
2023-03-29T15:37:23.969Z,100717.97
2023-03-29T15:42:25.795Z,100714.06
2023-03-29T15:47:27.974Z,100699.06
2023-03-29T15:52:29.373Z,100697.94
2023-03-29T15:57:31.309Z,100690.56
2023-03-29T16:02:32.750Z,100687.13
2023-03-29T16:07:34.174Z,100672.34
2023-03-29T16:12:38.341Z,100669.72
2023-03-29T16:17:39.746Z,100678.06
2023-03-29T16:22:41.753Z,100666.28
2023-03-29T16:27:43.862Z,100652.28
2023-03-29T16:32:45.774Z,100656.88
2023-03-29T16:37:47.203Z,100643.13
2023-03-29T16:42:48.527Z,100628.59
2023-03-29T16:47:50.004Z,100631.19
2023-03-29T16:52:54.278Z,100625.13
2023-03-29T16:57:55.610Z,100628.91
2023-03-29T17:02:56.932Z,100623.03
2023-03-29T17:07:58.312Z,100612.94
2023-03-29T17:12:59.637Z,100614.78
2023-03-29T17:18:01.391Z,100604.91
2023-03-29T17:23:02.758Z,100607.19
2023-03-29T17:28:04.108Z,100608.31
2023-03-29T17:33:05.857Z,100601.38
2023-03-29T17:38:07.315Z,100597.88
2023-03-29T17:43:08.692Z,100600.19
2023-03-29T17:48:10.061Z,100601.50
2023-03-29T17:53:12.092Z,100600.13
2023-03-29T17:58:13.411Z,100609.38
2023-03-29T18:03:14.875Z,100602.59
2023-03-29T18:08:16.784Z,100607.56
2023-03-29T18:13:24.349Z,100613.28
2023-03-29T18:18:26.624Z,100609.06
2023-03-29T18:23:28.152Z,100606.28
2023-03-29T18:28:30.482Z,100602.31
2023-03-29T18:33:35.336Z,100609.19
2023-03-29T18:38:36.939Z,100607.63
2023-03-29T18:43:39.733Z,100598.56
2023-03-29T18:48:41.746Z,100597.41
2023-03-29T18:53:44.280Z,100596.19
2023-03-29T18:58:46.332Z,100591.56
2023-03-29T19:03:48.074Z,100588.31
2023-03-29T19:08:49.550Z,100579.09
2023-03-29T19:13:52.214Z,100577.84
2023-03-29T19:18:53.563Z,100573.03
2023-03-29T19:23:54.916Z,100560.34
2023-03-29T19:28:56.323Z,100559.38
2023-03-29T19:33:57.679Z,100552.16
2023-03-29T19:38:59.486Z,100542.06
2023-03-29T19:44:01.055Z,100540.91
2023-03-29T19:49:04.436Z,100535.28
2023-03-29T19:54:07.032Z,100530.88
2023-03-29T19:59:10.916Z,100514.00
2023-03-29T20:04:12.322Z,100505.53
2023-03-29T20:09:15.995Z,100498.28
2023-03-29T20:14:17.327Z,100490.97
2023-03-29T20:19:19.234Z,100478.09
2023-03-29T20:24:21.240Z,100489.56
2023-03-29T20:29:22.575Z,100476.44
2023-03-29T20:34:23.898Z,100471.06
2023-03-29T20:39:26.053Z,100470.59
2023-03-29T20:44:28.267Z,100451.81
2023-03-29T20:49:30.265Z,100457.06
2023-03-29T20:54:33.420Z,100445.56
2023-03-29T20:59:35.603Z,100441.16
2023-03-29T21:04:37.005Z,100436.19
2023-03-29T21:09:38.342Z,100426.72
2023-03-29T21:14:39.671Z,100426.06
2023-03-29T21:19:41.356Z,100413.66
2023-03-29T21:24:42.689Z,100401.34
2023-03-29T21:29:44.028Z,100402.50
2023-03-29T21:34:45.345Z,100396.69
2023-03-29T21:39:46.655Z,100397.06
2023-03-29T21:44:48.003Z,100387.56
2023-03-29T21:49:49.308Z,100384.28
2023-03-29T21:54:50.830Z,100375.56
2023-03-29T21:59:52.134Z,100372.53
2023-03-29T22:04:53.437Z,100376.66
2023-03-29T22:10:04.141Z,100372.63
2023-03-29T22:15:06.421Z,100372.31
2023-03-29T22:20:13.801Z,100361.09
2023-03-29T22:25:15.918Z,100365.56
2023-03-29T22:30:17.798Z,100364.88
2023-03-29T22:35:19.153Z,100367.25
2023-03-29T22:40:20.738Z,100381.16
2023-03-29T22:45:22.065Z,100374.09
2023-03-29T22:50:23.452Z,100357.34
2023-03-29T22:55:24.750Z,100361.72
2023-03-29T23:00:26.340Z,100360.88
2023-03-29T23:05:27.649Z,100350.22
2023-03-29T23:10:30.389Z,100352.59
2023-03-29T23:15:32.254Z,100348.81
2023-03-29T23:20:33.625Z,100349.47
2023-03-29T23:25:35.253Z,100342.53
2023-03-29T23:30:37.097Z,100334.03
2023-03-29T23:35:38.423Z,100336.91
2023-03-29T23:40:39.733Z,100332.69
2023-03-29T23:45:41.051Z,100340.13
2023-03-29T23:50:46.193Z,100331.84
2023-03-29T23:55:48.429Z,100319.09
